New Philadelphia, OH

5:10 PM EDT on August 21, 2014 (GMT -0400)
Wayne County | Change Station
CLOSE
Current Station
Airport
Location: Wooster,
Elevation: 1135 ft
Nearby Weather Stations

Elev 1135 ft 40.87 °N, 81.89 °W | Updated 14 minutes ago

Overcast
Overcast
75 °F
Feels Like 75 °F
N
9
Wind Variable Wind from WSW

Today
High -- | Low -- °F
--% Chance of Precip.
Yesterday
High -- | Low -- °F
Precip. -- in
6:42 AM 8:14 PM
Waning Crescent, 12% visible
Pressure 30.00 in
Visibility 10.0 miles
Clouds Mostly Cloudy 2000 ft
Overcast 2700 ft
Dew Point 68 °F
Humidity 79%
Rainfall 0.00 in
Snow Depth Not available.
UV 1 out of 12
Pollen 8.70 out of 12
Air Quality Not available.
Flu Activity Not available.
METAR KBJJ 212056Z AUTO 24008KT 10SM BKN020 OVC027 24/20 A3002 RMK AO2 SLP159 T02390200 55012 TSNO

More Conditions Fewer Conditions

Pressure 30.00 in
Visibility 10.0 miles
Clouds Mostly Cloudy 2000 ft
Overcast 2700 ft
Dew Point 68 °F
Humidity 79%
Rainfall 0.00 in
Snow Depth Not available.
UV 1 out of 12
Pollen 8.70 out of 12
Air Quality Not available.
Flu Activity Not available.
METAR KBJJ 212056Z AUTO 24008KT 10SM BKN020 OVC027 24/20 A3002 RMK AO2 SLP159 T02390200 55012 TSNO

More Conditions Fewer Conditions

10-Day Weather Forecast

Almanac

Astronomy

Aug. 21, 2014 Rise Set
Actual Time 6:42 AM EDT 8:14 PM EDT
Civil Twilight 6:13 AM EDT 8:43 PM EDT
Nautical Twilight 5:38 AM EDT 9:17 PM EDT
Astronomical Twilight 5:01 AM EDT 9:54 PM EDT
Moon 3:11 AM EDT 5:42 PM EDT
Length of Visible Light 14h 29m
Length of Day
13h 32m
Tomorrow will be 2m 27s shorter.
Waning Crescent, 12% of the Moon is Illuminated
Today
Waning Crescent
Aug 25
New
Sep 2
First Quarter
Sep 8
Full
Sep 15
Last Quarter

Today's Extremes

State Highs State Lows

Community

WunderPhotos

Upload Photos

1,746,019 photos uploaded!

WunderBlogs® & News

Nearby

Snow Depth

Station Depth Elevation
No new snow has been reported.

Earthquake Activity

City Distance Mag. Time & Date
No recent earthquake activity has been reported nearby.
Minimum magnitude displayed is 2.5.

Coastal Water Temperatures

Place Temperature
No Stations Reporting

Nearby Weather Stations